sensor_id;sensor_type;location;lat;lon;timestamp;P1;durP1;ratioP1;P2;durP2;ratioP2
80778;SDS011;70170;47.856;10.956;2024-03-08T00:00:08;25.25;;;12.60;;
80778;SDS011;70170;47.856;10.956;2024-03-08T00:02:41;28.13;;;14.95;;
80778;SDS011;70170;47.856;10.956;2024-03-08T00:05:07;43.28;;;19.83;;
80778;SDS011;70170;47.856;10.956;2024-03-08T00:07:34;30.77;;;13.27;;
80778;SDS011;70170;47.856;10.956;2024-03-08T00:10:00;19.65;;;9.95;;
80778;SDS011;70170;47.856;10.956;2024-03-08T00:12:26;17.60;;;10.40;;
80778;SDS011;70170;47.856;10.956;2024-03-08T00:14:52;30.13;;;13.50;;
80778;SDS011;70170;47.856;10.956;2024-03-08T00:17:19;8.60;;;5.25;;
80778;SDS011;70170;47.856;10.956;2024-03-08T00:19:45;24.48;;;14.52;;
80778;SDS011;70170;47.856;10.956;2024-03-08T00:22:10;23.17;;;8.98;;
80778;SDS011;70170;47.856;10.956;2024-03-08T00:24:36;41.38;;;19.23;;
80778;SDS011;70170;47.856;10.956;2024-03-08T00:27:02;43.67;;;17.85;;
80778;SDS011;70170;47.856;10.956;2024-03-08T00:29:29;31.55;;;15.35;;
80778;SDS011;70170;47.856;10.956;2024-03-08T00:31:55;28.50;;;14.68;;
80778;SDS011;70170;47.856;10.956;2024-03-08T00:34:20;25.15;;;13.07;;
80778;SDS011;70170;47.856;10.956;2024-03-08T00:36:45;27.40;;;13.27;;
80778;SDS011;70170;47.856;10.956;2024-03-08T00:39:11;20.63;;;10.95;;
80778;SDS011;70170;47.856;10.956;2024-03-08T00:41:37;14.88;;;7.60;;
80778;SDS011;70170;47.856;10.956;2024-03-08T00:44:02;23.77;;;12.18;;
80778;SDS011;70170;47.856;10.956;2024-03-08T00:46:29;29.02;;;13.70;;
80778;SDS011;70170;47.856;10.956;2024-03-08T00:48:56;21.08;;;11.27;;
80778;SDS011;70170;47.856;10.956;2024-03-08T00:51:21;33.38;;;15.43;;
80778;SDS011;70170;47.856;10.956;2024-03-08T00:53:47;29.70;;;12.07;;
80778;SDS011;70170;47.856;10.956;2024-03-08T00:56:12;29.27;;;14.27;;
80778;SDS011;70170;47.856;10.956;2024-03-08T00:58:37;23.08;;;10.18;;
80778;SDS011;70170;47.856;10.956;2024-03-08T01:01:03;30.63;;;14.65;;
80778;SDS011;70170;47.856;10.956;2024-03-08T01:03:29;18.17;;;9.65;;
80778;SDS011;70170;47.856;10.956;2024-03-08T01:05:56;18.00;;;8.40;;
80778;SDS011;70170;47.856;10.956;2024-03-08T01:08:22;31.65;;;15.88;;
80778;SDS011;70170;47.856;10.956;2024-03-08T01:10:48;20.20;;;10.98;;
80778;SDS011;70170;47.856;10.956;2024-03-08T01:13:16;36.63;;;15.88;;
80778;SDS011;70170;47.856;10.956;2024-03-08T01:15:41;42.95;;;18.83;;
80778;SDS011;70170;47.856;10.956;2024-03-08T01:18:06;42.63;;;20.38;;
80778;SDS011;70170;47.856;10.956;2024-03-08T01:20:32;48.25;;;22.20;;
80778;SDS011;70170;47.856;10.956;2024-03-08T01:22:57;36.15;;;17.80;;
80778;SDS011;70170;47.856;10.956;2024-03-08T01:25:22;52.42;;;20.65;;
80778;SDS011;70170;47.856;10.956;2024-03-08T01:27:48;39.17;;;18.63;;
80778;SDS011;70170;47.856;10.956;2024-03-08T01:30:13;45.03;;;18.27;;
80778;SDS011;70170;47.856;10.956;2024-03-08T01:32:42;60.97;;;25.83;;
80778;SDS011;70170;47.856;10.956;2024-03-08T01:35:08;36.72;;;17.60;;
80778;SDS011;70170;47.856;10.956;2024-03-08T01:37:35;47.65;;;21.85;;
80778;SDS011;70170;47.856;10.956;2024-03-08T01:40:01;23.85;;;12.50;;
80778;SDS011;70170;47.856;10.956;2024-03-08T01:42:28;47.88;;;21.42;;
80778;SDS011;70170;47.856;10.956;2024-03-08T01:44:53;65.65;;;29.42;;
80778;SDS011;70170;47.856;10.956;2024-03-08T01:47:19;95.47;;;39.45;;
80778;SDS011;70170;47.856;10.956;2024-03-08T01:49:47;100.20;;;35.33;;
80778;SDS011;70170;47.856;10.956;2024-03-08T01:52:17;53.03;;;21.65;;
80778;SDS011;70170;47.856;10.956;2024-03-08T01:54:45;17.15;;;8.45;;
80778;SDS011;70170;47.856;10.956;2024-03-08T01:57:11;50.90;;;18.58;;
80778;SDS011;70170;47.856;10.956;2024-03-08T01:59:37;86.40;;;28.13;;
80778;SDS011;70170;47.856;10.956;2024-03-08T02:02:02;87.82;;;28.70;;
80778;SDS011;70170;47.856;10.956;2024-03-08T02:04:31;284.52;;;53.33;;
80778;SDS011;70170;47.856;10.956;2024-03-08T02:06:56;219.98;;;46.70;;
80778;SDS011;70170;47.856;10.956;2024-03-08T02:09:23;76.90;;;27.35;;
80778;SDS011;70170;47.856;10.956;2024-03-08T02:11:49;200.38;;;45.15;;
80778;SDS011;70170;47.856;10.956;2024-03-08T02:14:15;309.58;;;53.28;;
80778;SDS011;70170;47.856;10.956;2024-03-08T02:16:41;102.68;;;25.48;;
80778;SDS011;70170;47.856;10.956;2024-03-08T02:19:07;178.38;;;31.33;;
80778;SDS011;70170;47.856;10.956;2024-03-08T02:21:34;256.42;;;38.20;;
80778;SDS011;70170;47.856;10.956;2024-03-08T02:24:01;169.77;;;36.30;;
80778;SDS011;70170;47.856;10.956;2024-03-08T02:26:26;226.77;;;29.30;;
80778;SDS011;70170;47.856;10.956;2024-03-08T02:28:52;227.10;;;37.00;;
80778;SDS011;70170;47.856;10.956;2024-03-08T02:31:17;240.30;;;35.15;;
80778;SDS011;70170;47.856;10.956;2024-03-08T02:33:43;154.88;;;29.55;;
80778;SDS011;70170;47.856;10.956;2024-03-08T02:36:08;135.05;;;23.60;;
80778;SDS011;70170;47.856;10.956;2024-03-08T02:38:33;130.50;;;24.17;;
80778;SDS011;70170;47.856;10.956;2024-03-08T02:40:59;168.50;;;25.80;;
80778;SDS011;70170;47.856;10.956;2024-03-08T02:43:24;136.50;;;17.92;;
80778;SDS011;70170;47.856;10.956;2024-03-08T02:45:49;320.60;;;21.48;;
80778;SDS011;70170;47.856;10.956;2024-03-08T02:48:15;200.20;;;18.58;;
80778;SDS011;70170;47.856;10.956;2024-03-08T02:50:41;656.30;;;44.42;;
80778;SDS011;70170;47.856;10.956;2024-03-08T02:53:09;914.88;;;67.43;;
80778;SDS011;70170;47.856;10.956;2024-03-08T02:55:36;1102.97;;;85.55;;
80778;SDS011;70170;47.856;10.956;2024-03-08T02:58:02;398.92;;;27.38;;
80778;SDS011;70170;47.856;10.956;2024-03-08T03:00:28;868.72;;;56.03;;
80778;SDS011;70170;47.856;10.956;2024-03-08T03:02:55;767.92;;;54.35;;
80778;SDS011;70170;47.856;10.956;2024-03-08T03:05:24;707.00;;;51.38;;
80778;SDS011;70170;47.856;10.956;2024-03-08T03:07:49;385.88;;;29.00;;
80778;SDS011;70170;47.856;10.956;2024-03-08T03:10:19;283.05;;;21.65;;
80778;SDS011;70170;47.856;10.956;2024-03-08T03:12:46;874.60;;;61.05;;
80778;SDS011;70170;47.856;10.956;2024-03-08T03:15:13;699.45;;;52.22;;
80778;SDS011;70170;47.856;10.956;2024-03-08T03:17:39;398.52;;;29.50;;
80778;SDS011;70170;47.856;10.956;2024-03-08T03:20:08;519.92;;;31.13;;
80778;SDS011;70170;47.856;10.956;2024-03-08T03:22:39;316.73;;;25.98;;
80778;SDS011;70170;47.856;10.956;2024-03-08T03:25:06;801.05;;;45.55;;
80778;SDS011;70170;47.856;10.956;2024-03-08T03:27:32;603.40;;;37.05;;
80778;SDS011;70170;47.856;10.956;2024-03-08T03:29:57;496.77;;;36.47;;
80778;SDS011;70170;47.856;10.956;2024-03-08T03:32:23;224.20;;;19.13;;
80778;SDS011;70170;47.856;10.956;2024-03-08T03:34:49;597.60;;;40.78;;
80778;SDS011;70170;47.856;10.956;2024-03-08T03:37:17;306.70;;;27.35;;
80778;SDS011;70170;47.856;10.956;2024-03-08T03:39:44;554.65;;;40.53;;
80778;SDS011;70170;47.856;10.956;2024-03-08T03:42:14;392.77;;;25.63;;
80778;SDS011;70170;47.856;10.956;2024-03-08T03:44:41;55.03;;;7.57;;
80778;SDS011;70170;47.856;10.956;2024-03-08T03:47:09;763.28;;;52.40;;
80778;SDS011;70170;47.856;10.956;2024-03-08T03:49:34;267.90;;;24.30;;
80778;SDS011;70170;47.856;10.956;2024-03-08T03:51:59;182.57;;;16.73;;
80778;SDS011;70170;47.856;10.956;2024-03-08T03:54:25;705.25;;;47.92;;
80778;SDS011;70170;47.856;10.956;2024-03-08T03:56:50;504.98;;;35.40;;
80778;SDS011;70170;47.856;10.956;2024-03-08T03:59:18;283.25;;;27.13;;
80778;SDS011;70170;47.856;10.956;2024-03-08T04:01:43;417.70;;;30.77;;
80778;SDS011;70170;47.856;10.956;2024-03-08T04:04:09;169.38;;;17.27;;
80778;SDS011;70170;47.856;10.956;2024-03-08T04:06:34;666.38;;;51.75;;
80778;SDS011;70170;47.856;10.956;2024-03-08T04:08:59;420.50;;;33.28;;
80778;SDS011;70170;47.856;10.956;2024-03-08T04:11:25;264.50;;;25.48;;
80778;SDS011;70170;47.856;10.956;2024-03-08T04:13:50;642.95;;;60.38;;
80778;SDS011;70170;47.856;10.956;2024-03-08T04:16:17;392.60;;;31.85;;
80778;SDS011;70170;47.856;10.956;2024-03-08T04:18:43;386.55;;;31.70;;
80778;SDS011;70170;47.856;10.956;2024-03-08T04:21:09;552.45;;;40.88;;
80778;SDS011;70170;47.856;10.956;2024-03-08T04:23:34;501.52;;;41.80;;
80778;SDS011;70170;47.856;10.956;2024-03-08T04:26:03;589.45;;;45.83;;
80778;SDS011;70170;47.856;10.956;2024-03-08T04:28:31;204.90;;;24.83;;
80778;SDS011;70170;47.856;10.956;2024-03-08T04:30:56;340.15;;;32.08;;
80778;SDS011;70170;47.856;10.956;2024-03-08T04:33:22;340.25;;;27.25;;
80778;SDS011;70170;47.856;10.956;2024-03-08T04:35:48;300.08;;;33.70;;
80778;SDS011;70170;47.856;10.956;2024-03-08T04:38:14;332.48;;;33.10;;
80778;SDS011;70170;47.856;10.956;2024-03-08T04:40:40;110.35;;;14.82;;
80778;SDS011;70170;47.856;10.956;2024-03-08T04:43:06;433.35;;;43.22;;
80778;SDS011;70170;47.856;10.956;2024-03-08T04:45:32;521.00;;;42.38;;
80778;SDS011;70170;47.856;10.956;2024-03-08T04:47:58;315.95;;;31.08;;
80778;SDS011;70170;47.856;10.956;2024-03-08T04:50:24;460.35;;;39.03;;
80778;SDS011;70170;47.856;10.956;2024-03-08T04:52:49;252.10;;;28.05;;
80778;SDS011;70170;47.856;10.956;2024-03-08T04:55:14;341.88;;;34.33;;
80778;SDS011;70170;47.856;10.956;2024-03-08T04:57:40;314.35;;;39.38;;
80778;SDS011;70170;47.856;10.956;2024-03-08T05:00:07;319.67;;;29.60;;
80778;SDS011;70170;47.856;10.956;2024-03-08T05:02:39;96.05;;;11.40;;
80778;SDS011;70170;47.856;10.956;2024-03-08T05:05:08;330.80;;;24.52;;
80778;SDS011;70170;47.856;10.956;2024-03-08T05:07:37;16.70;;;5.85;;
80778;SDS011;70170;47.856;10.956;2024-03-08T05:10:06;290.98;;;25.05;;
80778;SDS011;70170;47.856;10.956;2024-03-08T05:12:32;62.42;;;9.68;;
80778;SDS011;70170;47.856;10.956;2024-03-08T05:14:58;123.53;;;17.45;;
80778;SDS011;70170;47.856;10.956;2024-03-08T05:17:23;151.63;;;27.70;;
80778;SDS011;70170;47.856;10.956;2024-03-08T05:19:49;302.38;;;42.78;;
80778;SDS011;70170;47.856;10.956;2024-03-08T05:22:14;122.47;;;18.13;;
80778;SDS011;70170;47.856;10.956;2024-03-08T05:24:40;65.90;;;18.77;;
80778;SDS011;70170;47.856;10.956;2024-03-08T05:27:05;96.80;;;20.58;;
80778;SDS011;70170;47.856;10.956;2024-03-08T05:29:31;134.00;;;21.45;;
80778;SDS011;70170;47.856;10.956;2024-03-08T05:31:57;126.45;;;22.60;;
80778;SDS011;70170;47.856;10.956;2024-03-08T05:34:23;101.45;;;19.52;;
80778;SDS011;70170;47.856;10.956;2024-03-08T05:36:48;56.65;;;14.07;;
80778;SDS011;70170;47.856;10.956;2024-03-08T05:39:17;134.55;;;25.50;;
80778;SDS011;70170;47.856;10.956;2024-03-08T05:41:46;88.95;;;21.73;;
80778;SDS011;70170;47.856;10.956;2024-03-08T05:44:11;54.70;;;14.73;;
80778;SDS011;70170;47.856;10.956;2024-03-08T05:46:38;190.07;;;30.02;;
80778;SDS011;70170;47.856;10.956;2024-03-08T05:49:04;81.50;;;20.45;;
80778;SDS011;70170;47.856;10.956;2024-03-08T05:51:33;219.27;;;44.95;;
80778;SDS011;70170;47.856;10.956;2024-03-08T05:54:02;121.22;;;27.73;;
80778;SDS011;70170;47.856;10.956;2024-03-08T05:56:30;80.50;;;17.50;;
80778;SDS011;70170;47.856;10.956;2024-03-08T05:58:56;44.88;;;11.10;;
80778;SDS011;70170;47.856;10.956;2024-03-08T06:01:23;272.52;;;34.78;;
80778;SDS011;70170;47.856;10.956;2024-03-08T06:03:52;174.88;;;26.10;;
80778;SDS011;70170;47.856;10.956;2024-03-08T06:06:25;360.55;;;31.35;;
80778;SDS011;70170;47.856;10.956;2024-03-08T06:08:51;204.88;;;21.90;;
80778;SDS011;70170;47.856;10.956;2024-03-08T06:11:17;173.27;;;22.15;;
80778;SDS011;70170;47.856;10.956;2024-03-08T06:13:44;99.63;;;14.35;;
80778;SDS011;70170;47.856;10.956;2024-03-08T06:16:09;207.85;;;24.83;;
80778;SDS011;70170;47.856;10.956;2024-03-08T06:18:35;135.50;;;16.17;;
80778;SDS011;70170;47.856;10.956;2024-03-08T06:21:07;102.97;;;10.07;;
80778;SDS011;70170;47.856;10.956;2024-03-08T06:26:07;92.20;;;12.52;;
80778;SDS011;70170;47.856;10.956;2024-03-08T06:28:36;132.20;;;14.43;;
80778;SDS011;70170;47.856;10.956;2024-03-08T06:31:01;88.20;;;11.63;;
80778;SDS011;70170;47.856;10.956;2024-03-08T06:33:32;133.98;;;17.27;;
80778;SDS011;70170;47.856;10.956;2024-03-08T06:35:58;279.45;;;25.17;;
80778;SDS011;70170;47.856;10.956;2024-03-08T06:38:23;33.30;;;8.65;;
80778;SDS011;70170;47.856;10.956;2024-03-08T06:40:49;151.77;;;17.10;;
80778;SDS011;70170;47.856;10.956;2024-03-08T06:43:16;567.20;;;44.30;;
80778;SDS011;70170;47.856;10.956;2024-03-08T06:45:42;296.20;;;27.00;;
80778;SDS011;70170;47.856;10.956;2024-03-08T06:48:13;316.00;;;18.98;;
80778;SDS011;70170;47.856;10.956;2024-03-08T06:50:42;334.77;;;26.73;;
80778;SDS011;70170;47.856;10.956;2024-03-08T06:53:11;141.38;;;13.63;;
80778;SDS011;70170;47.856;10.956;2024-03-08T06:55:37;352.70;;;21.58;;
80778;SDS011;70170;47.856;10.956;2024-03-08T06:58:02;272.98;;;20.92;;
80778;SDS011;70170;47.856;10.956;2024-03-08T07:00:28;64.18;;;9.40;;
80778;SDS011;70170;47.856;10.956;2024-03-08T07:02:56;447.65;;;31.48;;
80778;SDS011;70170;47.856;10.956;2024-03-08T07:05:26;140.90;;;16.08;;
80778;SDS011;70170;47.856;10.956;2024-03-08T07:07:52;236.68;;;22.05;;
80778;SDS011;70170;47.856;10.956;2024-03-08T07:10:18;121.70;;;18.80;;
80778;SDS011;70170;47.856;10.956;2024-03-08T07:12:44;120.32;;;18.02;;
80778;SDS011;70170;47.856;10.956;2024-03-08T07:15:09;64.50;;;15.82;;
80778;SDS011;70170;47.856;10.956;2024-03-08T07:17:41;190.30;;;25.48;;
80778;SDS011;70170;47.856;10.956;2024-03-08T07:20:09;97.15;;;17.15;;
80778;SDS011;70170;47.856;10.956;2024-03-08T07:22:39;116.43;;;20.67;;
80778;SDS011;70170;47.856;10.956;2024-03-08T07:25:05;145.90;;;19.73;;
80778;SDS011;70170;47.856;10.956;2024-03-08T07:27:47;179.45;;;23.42;;
80778;SDS011;70170;47.856;10.956;2024-03-08T07:30:12;85.43;;;15.65;;
80778;SDS011;70170;47.856;10.956;2024-03-08T07:32:38;61.65;;;16.33;;
80778;SDS011;70170;47.856;10.956;2024-03-08T07:35:03;82.72;;;16.85;;
80778;SDS011;70170;47.856;10.956;2024-03-08T07:37:29;130.07;;;18.58;;
80778;SDS011;70170;47.856;10.956;2024-03-08T07:39:55;305.48;;;25.95;;
80778;SDS011;70170;47.856;10.956;2024-03-08T07:42:20;71.85;;;17.30;;
80778;SDS011;70170;47.856;10.956;2024-03-08T07:44:47;105.95;;;19.15;;
80778;SDS011;70170;47.856;10.956;2024-03-08T07:47:13;102.13;;;17.25;;
80778;SDS011;70170;47.856;10.956;2024-03-08T07:49:38;138.82;;;18.90;;
80778;SDS011;70170;47.856;10.956;2024-03-08T07:52:04;105.28;;;18.58;;
80778;SDS011;70170;47.856;10.956;2024-03-08T07:54:32;194.68;;;28.88;;
80778;SDS011;70170;47.856;10.956;2024-03-08T07:56:59;25.90;;;11.35;;
80778;SDS011;70170;47.856;10.956;2024-03-08T07:59:24;61.90;;;17.70;;
80778;SDS011;70170;47.856;10.956;2024-03-08T08:01:50;64.22;;;16.45;;
80778;SDS011;70170;47.856;10.956;2024-03-08T08:04:15;37.20;;;13.73;;
80778;SDS011;70170;47.856;10.956;2024-03-08T08:06:43;52.67;;;14.77;;
80778;SDS011;70170;47.856;10.956;2024-03-08T08:09:08;50.28;;;18.50;;
80778;SDS011;70170;47.856;10.956;2024-03-08T08:11:40;20.17;;;8.75;;
80778;SDS011;70170;47.856;10.956;2024-03-08T08:14:09;104.40;;;21.42;;
80778;SDS011;70170;47.856;10.956;2024-03-08T08:16:35;58.30;;;17.05;;
80778;SDS011;70170;47.856;10.956;2024-03-08T08:19:02;81.50;;;19.15;;
80778;SDS011;70170;47.856;10.956;2024-03-08T08:21:32;53.97;;;17.55;;
80778;SDS011;70170;47.856;10.956;2024-03-08T08:23:58;35.42;;;14.88;;
80778;SDS011;70170;47.856;10.956;2024-03-08T08:26:25;42.13;;;16.90;;
80778;SDS011;70170;47.856;10.956;2024-03-08T08:28:51;50.40;;;14.77;;
80778;SDS011;70170;47.856;10.956;2024-03-08T08:31:18;28.38;;;13.15;;
80778;SDS011;70170;47.856;10.956;2024-03-08T08:33:44;21.80;;;10.27;;
80778;SDS011;70170;47.856;10.956;2024-03-08T08:36:09;47.38;;;18.25;;
80778;SDS011;70170;47.856;10.956;2024-03-08T08:38:35;34.20;;;11.85;;
80778;SDS011;70170;47.856;10.956;2024-03-08T08:41:00;40.45;;;14.75;;
80778;SDS011;70170;47.856;10.956;2024-03-08T08:43:27;23.50;;;10.52;;
80778;SDS011;70170;47.856;10.956;2024-03-08T08:45:53;18.15;;;9.75;;
80778;SDS011;70170;47.856;10.956;2024-03-08T08:48:20;29.90;;;15.20;;
80778;SDS011;70170;47.856;10.956;2024-03-08T08:50:45;15.63;;;8.20;;
80778;SDS011;70170;47.856;10.956;2024-03-08T08:53:11;27.77;;;12.73;;
80778;SDS011;70170;47.856;10.956;2024-03-08T08:55:39;36.45;;;13.13;;
80778;SDS011;70170;47.856;10.956;2024-03-08T08:58:05;23.42;;;11.82;;
80778;SDS011;70170;47.856;10.956;2024-03-08T09:00:32;24.55;;;11.23;;
80778;SDS011;70170;47.856;10.956;2024-03-08T09:02:59;23.80;;;11.52;;
80778;SDS011;70170;47.856;10.956;2024-03-08T09:05:25;30.20;;;12.55;;
80778;SDS011;70170;47.856;10.956;2024-03-08T09:07:51;19.00;;;10.68;;
80778;SDS011;70170;47.856;10.956;2024-03-08T09:10:17;21.17;;;10.75;;
80778;SDS011;70170;47.856;10.956;2024-03-08T09:12:43;27.33;;;15.93;;
80778;SDS011;70170;47.856;10.956;2024-03-08T09:15:09;20.15;;;10.52;;
80778;SDS011;70170;47.856;10.956;2024-03-08T09:17:36;32.97;;;16.65;;
80778;SDS011;70170;47.856;10.956;2024-03-08T09:20:04;19.10;;;9.15;;
80778;SDS011;70170;47.856;10.956;2024-03-08T09:22:33;26.42;;;14.02;;
80778;SDS011;70170;47.856;10.956;2024-03-08T09:24:59;23.92;;;11.30;;
80778;SDS011;70170;47.856;10.956;2024-03-08T09:27:25;33.00;;;15.38;;
80778;SDS011;70170;47.856;10.956;2024-03-08T09:29:50;22.77;;;14.00;;
80778;SDS011;70170;47.856;10.956;2024-03-08T09:32:16;28.73;;;13.27;;
80778;SDS011;70170;47.856;10.956;2024-03-08T09:34:41;22.55;;;13.10;;
80778;SDS011;70170;47.856;10.956;2024-03-08T09:37:07;18.17;;;10.50;;
80778;SDS011;70170;47.856;10.956;2024-03-08T09:39:33;15.82;;;8.40;;
80778;SDS011;70170;47.856;10.956;2024-03-08T09:41:59;25.58;;;13.75;;
80778;SDS011;70170;47.856;10.956;2024-03-08T09:44:24;22.25;;;11.45;;
80778;SDS011;70170;47.856;10.956;2024-03-08T09:46:50;23.52;;;11.65;;
80778;SDS011;70170;47.856;10.956;2024-03-08T09:49:17;10.43;;;6.28;;
80778;SDS011;70170;47.856;10.956;2024-03-08T09:51:43;17.40;;;9.65;;
80778;SDS011;70170;47.856;10.956;2024-03-08T09:54:09;10.20;;;7.00;;
80778;SDS011;70170;47.856;10.956;2024-03-08T09:56:37;21.35;;;12.38;;
80778;SDS011;70170;47.856;10.956;2024-03-08T09:59:06;21.60;;;11.23;;
80778;SDS011;70170;47.856;10.956;2024-03-08T10:01:35;19.65;;;9.73;;
80778;SDS011;70170;47.856;10.956;2024-03-08T10:04:01;21.60;;;12.02;;
80778;SDS011;70170;47.856;10.956;2024-03-08T10:06:27;20.58;;;11.43;;
80778;SDS011;70170;47.856;10.956;2024-03-08T10:08:52;23.67;;;13.20;;
80778;SDS011;70170;47.856;10.956;2024-03-08T10:11:18;26.98;;;13.63;;
80778;SDS011;70170;47.856;10.956;2024-03-08T10:13:44;22.15;;;11.68;;
80778;SDS011;70170;47.856;10.956;2024-03-08T10:16:11;21.40;;;13.15;;
80778;SDS011;70170;47.856;10.956;2024-03-08T10:18:37;12.88;;;7.72;;
80778;SDS011;70170;47.856;10.956;2024-03-08T10:21:03;23.13;;;13.55;;
80778;SDS011;70170;47.856;10.956;2024-03-08T10:23:29;22.77;;;15.32;;
80778;SDS011;70170;47.856;10.956;2024-03-08T10:25:55;12.77;;;6.63;;
80778;SDS011;70170;47.856;10.956;2024-03-08T10:28:23;20.55;;;11.27;;
80778;SDS011;70170;47.856;10.956;2024-03-08T10:30:53;17.63;;;10.35;;
80778;SDS011;70170;47.856;10.956;2024-03-08T10:33:21;15.63;;;9.77;;
80778;SDS011;70170;47.856;10.956;2024-03-08T10:35:46;12.52;;;7.05;;
80778;SDS011;70170;47.856;10.956;2024-03-08T10:38:11;13.23;;;7.22;;
80778;SDS011;70170;47.856;10.956;2024-03-08T10:40:41;14.77;;;9.32;;
80778;SDS011;70170;47.856;10.956;2024-03-08T10:43:06;19.13;;;10.23;;
80778;SDS011;70170;47.856;10.956;2024-03-08T10:45:43;8.15;;;4.80;;
80778;SDS011;70170;47.856;10.956;2024-03-08T10:48:26;13.32;;;7.43;;
80778;SDS011;70170;47.856;10.956;2024-03-08T10:50:56;10.70;;;6.30;;
80778;SDS011;70170;47.856;10.956;2024-03-08T10:53:22;14.43;;;9.38;;
80778;SDS011;70170;47.856;10.956;2024-03-08T10:55:49;16.33;;;9.23;;
80778;SDS011;70170;47.856;10.956;2024-03-08T10:58:18;11.32;;;7.22;;
80778;SDS011;70170;47.856;10.956;2024-03-08T11:00:46;17.67;;;10.20;;
80778;SDS011;70170;47.856;10.956;2024-03-08T11:06:05;18.33;;;10.73;;
80778;SDS011;70170;47.856;10.956;2024-03-08T11:08:31;15.43;;;8.95;;
80778;SDS011;70170;47.856;10.956;2024-03-08T11:10:58;18.77;;;9.70;;
80778;SDS011;70170;47.856;10.956;2024-03-08T11:13:34;18.38;;;11.05;;
80778;SDS011;70170;47.856;10.956;2024-03-08T11:16:12;16.60;;;9.30;;
80778;SDS011;70170;47.856;10.956;2024-03-08T11:21:35;19.98;;;8.48;;
80778;SDS011;70170;47.856;10.956;2024-03-08T11:24:13;11.57;;;7.60;;
80778;SDS011;70170;47.856;10.956;2024-03-08T11:26:39;16.63;;;8.73;;
80778;SDS011;70170;47.856;10.956;2024-03-08T11:32:15;19.80;;;10.63;;
80778;SDS011;70170;47.856;10.956;2024-03-08T11:34:43;12.60;;;7.97;;
80778;SDS011;70170;47.856;10.956;2024-03-08T11:37:15;22.13;;;11.38;;
80778;SDS011;70170;47.856;10.956;2024-03-08T11:39:53;15.07;;;9.23;;
80778;SDS011;70170;47.856;10.956;2024-03-08T11:42:27;19.58;;;13.88;;
80778;SDS011;70170;47.856;10.956;2024-03-08T11:44:52;15.73;;;9.90;;
80778;SDS011;70170;47.856;10.956;2024-03-08T11:47:18;13.57;;;8.90;;
80778;SDS011;70170;47.856;10.956;2024-03-08T11:49:47;16.20;;;9.35;;
80778;SDS011;70170;47.856;10.956;2024-03-08T11:52:14;14.90;;;8.65;;
80778;SDS011;70170;47.856;10.956;2024-03-08T11:54:41;19.30;;;11.85;;
80778;SDS011;70170;47.856;10.956;2024-03-08T11:57:08;14.18;;;8.48;;
80778;SDS011;70170;47.856;10.956;2024-03-08T11:59:35;16.52;;;9.88;;
80778;SDS011;70170;47.856;10.956;2024-03-08T12:02:04;14.77;;;9.50;;
80778;SDS011;70170;47.856;10.956;2024-03-08T12:04:33;14.32;;;8.45;;
80778;SDS011;70170;47.856;10.956;2024-03-08T12:07:01;13.20;;;7.75;;
80778;SDS011;70170;47.856;10.956;2024-03-08T12:09:28;14.05;;;8.52;;
80778;SDS011;70170;47.856;10.956;2024-03-08T12:11:54;17.50;;;10.05;;
80778;SDS011;70170;47.856;10.956;2024-03-08T12:14:19;16.23;;;8.43;;
80778;SDS011;70170;47.856;10.956;2024-03-08T12:16:45;13.95;;;8.60;;
80778;SDS011;70170;47.856;10.956;2024-03-08T12:19:13;11.75;;;7.95;;
80778;SDS011;70170;47.856;10.956;2024-03-08T12:21:39;17.35;;;8.75;;
80778;SDS011;70170;47.856;10.956;2024-03-08T12:24:11;13.50;;;8.93;;
80778;SDS011;70170;47.856;10.956;2024-03-08T12:26:41;16.17;;;6.50;;
80778;SDS011;70170;47.856;10.956;2024-03-08T12:31:51;15.30;;;9.32;;
80778;SDS011;70170;47.856;10.956;2024-03-08T12:34:20;6.20;;;3.88;;
80778;SDS011;70170;47.856;10.956;2024-03-08T12:36:48;8.65;;;6.10;;
80778;SDS011;70170;47.856;10.956;2024-03-08T12:39:17;11.15;;;7.13;;
80778;SDS011;70170;47.856;10.956;2024-03-08T12:41:47;13.43;;;7.35;;
80778;SDS011;70170;47.856;10.956;2024-03-08T12:44:14;11.05;;;7.70;;
80778;SDS011;70170;47.856;10.956;2024-03-08T12:46:39;8.38;;;5.30;;
80778;SDS011;70170;47.856;10.956;2024-03-08T12:49:08;20.00;;;6.65;;
80778;SDS011;70170;47.856;10.956;2024-03-08T12:51:45;16.80;;;8.43;;
80778;SDS011;70170;47.856;10.956;2024-03-08T12:54:14;9.63;;;6.60;;
80778;SDS011;70170;47.856;10.956;2024-03-08T12:56:39;15.38;;;9.90;;
80778;SDS011;70170;47.856;10.956;2024-03-08T12:59:05;13.60;;;8.27;;
80778;SDS011;70170;47.856;10.956;2024-03-08T13:01:38;12.47;;;8.17;;
80778;SDS011;70170;47.856;10.956;2024-03-08T13:04:03;10.40;;;5.97;;
80778;SDS011;70170;47.856;10.956;2024-03-08T13:06:36;8.75;;;5.55;;
80778;SDS011;70170;47.856;10.956;2024-03-08T13:09:01;15.40;;;8.13;;
80778;SDS011;70170;47.856;10.956;2024-03-08T13:11:33;10.73;;;6.57;;
80778;SDS011;70170;47.856;10.956;2024-03-08T13:14:02;11.65;;;6.57;;
80778;SDS011;70170;47.856;10.956;2024-03-08T13:16:29;8.93;;;6.72;;
80778;SDS011;70170;47.856;10.956;2024-03-08T13:18:54;5.88;;;4.18;;
80778;SDS011;70170;47.856;10.956;2024-03-08T13:21:23;12.85;;;7.55;;
80778;SDS011;70170;47.856;10.956;2024-03-08T13:23:49;10.48;;;7.60;;
80778;SDS011;70170;47.856;10.956;2024-03-08T13:26:15;10.95;;;6.22;;
80778;SDS011;70170;47.856;10.956;2024-03-08T13:28:46;11.35;;;7.28;;
80778;SDS011;70170;47.856;10.956;2024-03-08T13:31:13;11.80;;;7.20;;
80778;SDS011;70170;47.856;10.956;2024-03-08T13:33:40;10.20;;;5.85;;
80778;SDS011;70170;47.856;10.956;2024-03-08T13:36:07;7.43;;;5.80;;
80778;SDS011;70170;47.856;10.956;2024-03-08T13:38:42;8.18;;;5.40;;
80778;SDS011;70170;47.856;10.956;2024-03-08T13:41:12;8.38;;;6.13;;
80778;SDS011;70170;47.856;10.956;2024-03-08T13:43:43;13.05;;;5.70;;
80778;SDS011;70170;47.856;10.956;2024-03-08T13:46:14;13.05;;;9.70;;
80778;SDS011;70170;47.856;10.956;2024-03-08T13:48:39;12.02;;;7.35;;
80778;SDS011;70170;47.856;10.956;2024-03-08T13:51:06;7.13;;;4.68;;
80778;SDS011;70170;47.856;10.956;2024-03-08T13:53:31;10.35;;;6.78;;
80778;SDS011;70170;47.856;10.956;2024-03-08T13:55:57;11.38;;;7.97;;
80778;SDS011;70170;47.856;10.956;2024-03-08T13:58:23;10.20;;;7.70;;
80778;SDS011;70170;47.856;10.956;2024-03-08T14:00:48;8.23;;;5.00;;
80778;SDS011;70170;47.856;10.956;2024-03-08T14:03:16;7.45;;;5.50;;
80778;SDS011;70170;47.856;10.956;2024-03-08T14:05:42;11.43;;;7.63;;
80778;SDS011;70170;47.856;10.956;2024-03-08T14:08:11;6.47;;;5.35;;
80778;SDS011;70170;47.856;10.956;2024-03-08T14:10:41;12.32;;;7.25;;
80778;SDS011;70170;47.856;10.956;2024-03-08T14:13:07;10.90;;;6.75;;
80778;SDS011;70170;47.856;10.956;2024-03-08T14:15:33;11.85;;;7.10;;
80778;SDS011;70170;47.856;10.956;2024-03-08T14:18:02;11.57;;;6.93;;
80778;SDS011;70170;47.856;10.956;2024-03-08T14:20:31;11.48;;;6.97;;